createdAt,value
2022-11-20T00:02:34.421Z,-0.30
2022-11-20T00:05:21.326Z,-0.30
2022-11-20T00:08:08.186Z,-0.30
2022-11-20T00:10:55.026Z,-0.40
2022-11-20T00:13:42.844Z,-0.40
2022-11-20T00:16:32.066Z,-0.40
2022-11-20T00:19:19.211Z,-0.40
2022-11-20T00:22:06.346Z,-0.30
2022-11-20T00:24:53.192Z,-0.40
2022-11-20T00:27:40.034Z,-0.30
2022-11-20T00:30:27.578Z,-0.30
2022-11-20T00:33:14.419Z,-0.40
2022-11-20T00:36:02.615Z,-0.40
2022-11-20T00:38:52.568Z,-0.40
2022-11-20T00:41:39.431Z,-0.60
2022-11-20T00:44:26.322Z,-0.50
2022-11-20T00:47:13.810Z,-0.50
2022-11-20T00:50:00.699Z,-0.40
2022-11-20T00:52:47.561Z,-0.40
2022-11-20T00:55:34.918Z,-0.40
2022-11-20T00:58:22.107Z,-0.60
2022-11-20T01:01:11.059Z,-0.50
2022-11-20T01:04:00.386Z,-0.50
2022-11-20T01:06:47.249Z,-0.80
2022-11-20T01:09:34.346Z,-0.60
2022-11-20T01:12:21.199Z,-0.70
2022-11-20T01:15:09.007Z,-0.80
2022-11-20T01:17:55.855Z,-0.80
2022-11-20T01:20:43.403Z,-0.80
2022-11-20T01:23:34.171Z,-0.70
2022-11-20T01:26:23.019Z,-0.70
2022-11-20T01:29:14.168Z,-0.80
2022-11-20T01:32:01.492Z,-0.80
2022-11-20T01:34:48.332Z,-0.90
2022-11-20T01:37:35.870Z,-0.90
2022-11-20T01:40:22.723Z,-0.90
2022-11-20T01:43:22.660Z,-1.20
2022-11-20T01:46:15.680Z,-1.40
2022-11-20T01:49:04.844Z,-1.30
2022-11-20T01:51:56.481Z,-1.00
2022-11-20T01:54:49.302Z,-1.00
2022-11-20T01:57:37.956Z,-1.00
2022-11-20T02:00:25.148Z,-1.30
2022-11-20T02:03:15.908Z,-1.00
2022-11-20T02:06:10.254Z,-1.00
2022-11-20T02:08:57.118Z,-1.10
2022-11-20T02:11:44.639Z,-1.00
2022-11-20T02:14:31.523Z,-1.10
2022-11-20T02:17:18.350Z,-1.30
2022-11-20T02:20:06.541Z,-1.10
2022-11-20T02:22:58.322Z,-1.10
2022-11-20T02:25:47.487Z,-1.40
2022-11-20T02:28:34.347Z,-1.40
2022-11-20T02:31:21.270Z,-1.20
2022-11-20T02:34:08.137Z,-1.20
2022-11-20T02:36:56.131Z,-1.20
2022-11-20T02:39:45.022Z,-1.30
2022-11-20T02:42:32.690Z,-1.30
2022-11-20T02:45:19.913Z,-1.20
2022-11-20T02:48:07.082Z,-1.30
2022-11-20T02:50:53.917Z,-1.30
2022-11-20T02:53:40.902Z,-1.30
2022-11-20T02:56:28.052Z,-1.40
2022-11-20T02:59:15.557Z,-1.50
2022-11-20T03:02:02.425Z,-1.50
2022-11-20T03:04:49.370Z,-1.60
2022-11-20T03:07:36.272Z,-1.50
2022-11-20T03:10:23.318Z,-1.50
2022-11-20T03:13:10.219Z,-1.60
2022-11-20T03:15:57.702Z,-1.50
2022-11-20T03:18:44.594Z,-1.40
2022-11-20T03:21:33.047Z,-1.50
2022-11-20T03:24:19.910Z,-1.50
2022-11-20T03:27:06.798Z,-1.60
2022-11-20T03:29:53.638Z,-1.60
2022-11-20T03:32:41.235Z,-1.60
2022-11-20T03:35:28.115Z,-1.60
2022-11-20T03:38:14.966Z,-1.70
2022-11-20T03:41:03.447Z,-1.60
2022-11-20T03:43:51.139Z,-1.70
2022-11-20T03:46:38.183Z,-1.70
2022-11-20T03:49:25.687Z,-1.80
2022-11-20T03:52:12.554Z,-2.20
2022-11-20T03:54:59.408Z,-1.70
2022-11-20T03:57:46.288Z,-1.60
2022-11-20T04:00:33.147Z,-1.50
2022-11-20T04:03:20.379Z,-1.40
2022-11-20T04:06:10.524Z,-1.60
2022-11-20T04:08:58.531Z,-1.30
2022-11-20T04:11:45.383Z,-1.30
2022-11-20T04:14:32.253Z,-1.20
2022-11-20T04:17:19.131Z,-1.10
2022-11-20T04:20:07.256Z,-1.10
2022-11-20T04:22:55.076Z,-1.00
2022-11-20T04:25:41.946Z,-0.90
2022-11-20T04:28:28.821Z,-0.80
2022-11-20T04:31:17.937Z,-0.80
2022-11-20T04:34:06.576Z,-0.70
2022-11-20T04:36:53.436Z,-0.60
2022-11-20T04:39:40.957Z,-0.50
2022-11-20T04:42:30.692Z,-0.50
2022-11-20T04:45:17.613Z,-0.40
2022-11-20T04:48:05.124Z,-0.40
2022-11-20T04:50:52.857Z,-0.30
2022-11-20T04:53:39.805Z,-0.40
2022-11-20T04:56:27.297Z,-0.50
2022-11-20T04:59:14.442Z,-0.40
2022-11-20T05:02:01.482Z,-0.20
2022-11-20T05:04:48.377Z,-0.10
2022-11-20T05:07:35.241Z,0.40
2022-11-20T05:10:22.129Z,-0.20
2022-11-20T05:13:09.589Z,-0.40
2022-11-20T05:15:56.465Z,-0.10
2022-11-20T05:18:43.586Z,-0.10
2022-11-20T05:21:31.795Z,-0.20
2022-11-20T05:24:18.634Z,-0.10
2022-11-20T05:27:05.485Z,-0.10
2022-11-20T05:29:52.990Z,-0.10
2022-11-20T05:32:39.865Z,-0.20
2022-11-20T05:35:26.723Z,-0.20
2022-11-20T05:38:13.569Z,-0.20
2022-11-20T05:41:05.006Z,-0.10
2022-11-20T05:43:52.310Z,-0.10
2022-11-20T05:46:39.802Z,-0.10
2022-11-20T05:49:26.663Z,-0.10
2022-11-20T05:52:13.555Z,-0.10
2022-11-20T05:55:03.427Z,-0.30
2022-11-20T05:57:50.267Z,0.00
2022-11-20T06:00:37.958Z,0.00
2022-11-20T06:03:25.470Z,-0.10
2022-11-20T06:06:13.674Z,-0.10
2022-11-20T06:09:00.571Z,-0.20
2022-11-20T06:11:47.409Z,-0.20
2022-11-20T06:14:34.327Z,-0.20
2022-11-20T06:17:21.194Z,-0.20
2022-11-20T06:20:10.316Z,-0.20
2022-11-20T06:22:57.209Z,-0.30
2022-11-20T06:25:44.152Z,-0.30
2022-11-20T06:28:31.959Z,-0.40
2022-11-20T06:31:20.175Z,-0.50
2022-11-20T06:34:07.353Z,-0.50
2022-11-20T06:36:54.839Z,-0.50
2022-11-20T06:39:41.668Z,-0.60
2022-11-20T06:42:28.540Z,-0.90
2022-11-20T06:45:15.532Z,-0.30
2022-11-20T06:48:03.050Z,-0.20
2022-11-20T06:50:50.067Z,-0.30
2022-11-20T06:53:37.960Z,-0.30
2022-11-20T06:56:24.797Z,-0.20
2022-11-20T07:00:04.086Z,-0.10
2022-11-20T07:02:51.224Z,-0.10
2022-11-20T07:05:38.588Z,0.00
2022-11-20T07:08:25.981Z,-0.20
2022-11-20T07:11:14.052Z,-0.20
2022-11-20T07:14:00.910Z,-0.70
2022-11-20T07:16:47.724Z,-0.40
2022-11-20T07:19:34.637Z,-0.70
2022-11-20T07:22:22.059Z,-0.50
2022-11-20T07:25:10.221Z,-0.90
2022-11-20T07:28:04.218Z,-0.60
2022-11-20T07:30:51.779Z,-0.60
2022-11-20T07:33:38.657Z,-0.70
2022-11-20T07:36:25.522Z,-0.70
2022-11-20T07:39:12.432Z,-0.80
2022-11-20T07:41:59.385Z,-0.80
2022-11-20T07:44:46.887Z,0.00
2022-11-20T07:47:36.065Z,-1.00
2022-11-20T07:50:22.958Z,-1.10
2022-11-20T07:53:09.812Z,-0.70
2022-11-20T07:56:00.457Z,-1.00
2022-11-20T07:58:47.313Z,2.40
2022-11-20T08:01:34.810Z,-0.90
2022-11-20T08:04:21.789Z,-0.90
2022-11-20T08:07:08.735Z,-0.80
2022-11-20T08:09:55.623Z,-0.80
2022-11-20T08:13:04.601Z,-0.60
2022-11-20T08:15:51.834Z,-0.70
2022-11-20T08:18:39.340Z,-0.70
2022-11-20T08:21:26.375Z,-0.50
2022-11-20T08:24:13.359Z,-0.50
2022-11-20T08:27:00.482Z,-0.30
2022-11-20T08:29:47.319Z,-0.10
2022-11-20T08:32:35.193Z,0.10
2022-11-20T08:35:22.860Z,0.20
2022-11-20T08:38:09.729Z,0.50
2022-11-20T08:41:16.065Z,0.50
2022-11-20T08:44:05.018Z,0.70
2022-11-20T08:46:51.884Z,0.80
2022-11-20T08:49:38.752Z,0.90
2022-11-20T08:52:26.982Z,1.20
2022-11-20T08:55:13.905Z,1.10
2022-11-20T08:58:03.960Z,1.20
2022-11-20T09:00:51.096Z,1.30
2022-11-20T09:03:38.057Z,1.30
2022-11-20T09:06:24.939Z,1.20
2022-11-20T09:09:12.466Z,1.20
2022-11-20T09:11:59.368Z,1.50
2022-11-20T09:14:48.753Z,1.70
2022-11-20T09:17:39.092Z,1.20
2022-11-20T09:20:28.780Z,1.50
2022-11-20T09:23:16.244Z,1.40
2022-11-20T09:26:06.039Z,1.70
2022-11-20T09:28:58.090Z,1.80
2022-11-20T09:31:45.111Z,1.90
2022-11-20T09:34:32.149Z,2.20
2022-11-20T09:37:19.000Z,2.10
2022-11-20T09:40:07.084Z,3.00
2022-11-20T09:43:00.004Z,2.30
2022-11-20T09:46:00.688Z,2.50
2022-11-20T09:49:04.168Z,2.30
2022-11-20T09:51:58.722Z,2.50
2022-11-20T09:55:13.227Z,2.70
2022-11-20T09:58:01.442Z,2.70
2022-11-20T10:01:43.357Z,2.60
2022-11-20T10:04:36.778Z,2.80
2022-11-20T10:08:31.997Z,3.60
2022-11-20T10:11:24.182Z,3.10
2022-11-20T10:14:43.115Z,3.50
2022-11-20T10:18:35.531Z,3.20
2022-11-20T10:26:26.005Z,3.50
2022-11-20T10:29:40.213Z,3.80
2022-11-20T10:36:56.083Z,3.90
2022-11-20T10:39:50.655Z,4.40
2022-11-20T10:42:44.086Z,4.10
2022-11-20T10:45:43.602Z,3.90
2022-11-20T10:48:32.005Z,4.00
2022-11-20T10:51:32.619Z,3.90
2022-11-20T10:54:27.954Z,4.20
2022-11-20T10:57:25.854Z,4.30
2022-11-20T11:00:13.713Z,4.90
2022-11-20T11:03:03.142Z,4.40
2022-11-20T11:05:55.282Z,4.40
2022-11-20T11:08:43.464Z,4.40
2022-11-20T11:11:33.978Z,4.50
2022-11-20T11:14:20.910Z,4.40
2022-11-20T11:17:27.051Z,4.80
2022-11-20T11:20:18.093Z,4.40
2022-11-20T11:23:11.186Z,4.50
2022-11-20T11:25:59.338Z,4.60
2022-11-20T11:28:54.592Z,4.50
2022-11-20T11:31:41.450Z,4.40
2022-11-20T11:34:28.419Z,4.60
2022-11-20T11:37:21.635Z,4.50
2022-11-20T11:40:27.558Z,4.40
2022-11-20T11:43:50.017Z,4.40
2022-11-20T11:46:37.879Z,4.50
2022-11-20T11:49:25.243Z,4.60
2022-11-20T11:52:16.486Z,4.40
2022-11-20T11:55:10.283Z,4.30
2022-11-20T11:58:10.241Z,4.40
2022-11-20T12:01:01.424Z,4.60
2022-11-20T12:04:00.173Z,4.50
2022-11-20T12:07:39.267Z,4.40
2022-11-20T12:10:37.665Z,4.50
2022-11-20T12:13:36.607Z,4.50
2022-11-20T12:16:23.819Z,4.90
2022-11-20T12:19:36.411Z,4.90
2022-11-20T12:22:32.470Z,4.80
2022-11-20T12:25:23.251Z,4.80
2022-11-20T12:28:32.334Z,4.90
2022-11-20T12:31:36.136Z,4.90
2022-11-20T12:34:54.232Z,5.00
2022-11-20T12:37:49.571Z,5.00
2022-11-20T12:40:43.225Z,4.90
2022-11-20T12:43:53.893Z,4.90
2022-11-20T12:46:45.943Z,5.10
2022-11-20T12:49:38.665Z,5.00
2022-11-20T12:52:37.096Z,4.90
2022-11-20T12:55:36.095Z,5.00
2022-11-20T12:58:33.838Z,5.60
2022-11-20T13:01:40.428Z,4.90
2022-11-20T13:04:48.057Z,5.10
2022-11-20T13:07:36.671Z,5.00
2022-11-20T13:10:31.989Z,5.00
2022-11-20T13:13:26.852Z,5.00
